Time;durP1;ratioP1;P1;durP2;ratioP2;P2;SDS_P1;SDS_P2;PMS_P1;PMS_P2;Temp;Humidity;BMP_temperature;BMP_pressure;BME280_temperature;BME280_humidity;BME280_pressure;Samples;Min_cycle;Max_cycle;Signal;HPM_P1;HPM_P2
2023/02/21 02:14:52;;;;;;;;;;;205.10;2252.80;;;;;;5052788;28;19992;-74
2023/02/21 02:17:44;;;;;;;;;;;205.20;2252.80;;;;;;5053513;28;19912;-77
2023/02/21 02:20:19;;;;;;;;;;;205.40;2252.80;;;;;;4991826;28;20004;-79
2023/02/21 02:22:47;;;;;;;;;;;205.30;2252.80;;;;;;4992055;28;20006;-76
2023/02/21 02:25:38;;;;;;;;;;;205.20;2252.80;;;;;;4991873;28;19905;-76
2023/02/21 02:28:33;;;;;;;;;;;205.20;2252.80;;;;;;4953265;29;20254;-77
2023/02/21 02:31:09;;;;;;;;;;;205.10;2252.80;;;;;;4886553;29;19908;-74
2023/02/21 02:33:37;;;;;;;;;;;205.00;2252.80;;;;;;4885928;29;20016;-76
2023/02/21 02:36:08;;;;;;;;;;;204.90;2252.80;;;;;;4886858;29;20282;-75
2023/02/21 02:38:33;;;;;;;;;;;204.80;2252.80;;;;;;4885942;29;19995;-75
2023/02/21 02:40:59;;;;;;;;;;;204.80;2252.80;;;;;;4886582;29;20014;-76
2023/02/21 02:43:32;;;;;;;;;;;204.90;2252.80;;;;;;4885391;29;19947;-76
2023/02/21 02:46:10;;;;;;;;;;;204.90;2252.80;;;;;;4886425;29;19930;-74
2023/02/21 02:48:37;;;;;;;;;;;204.90;2252.80;;;;;;4878266;29;19990;-77
2023/02/21 02:51:06;;;;;;;;;;;205.00;2252.80;;;;;;4886588;29;20366;-77
2023/02/21 02:53:31;;;;;;;;;;;205.10;2252.80;;;;;;4887652;29;19919;-76
2023/02/21 02:55:59;;;;;;;;;;;205.10;2252.80;;;;;;4864317;29;20439;-74
2023/02/21 02:58:26;;;;;;;;;;;205.10;2252.80;;;;;;4905250;29;19907;-75
2023/02/21 03:01:12;;;;;;;;;;;205.10;2252.80;;;;;;4906557;29;19991;-76
2023/02/21 03:03:50;;;;;;;;;;;205.10;2252.80;;;;;;4858372;29;19908;-78
2023/02/21 03:06:16;;;;;;;;;;;205.10;2252.80;;;;;;4898296;29;19923;-76
2023/02/21 03:08:44;;;;;;;;;;;205.20;2252.80;;;;;;4952708;29;19907;-78
2023/02/21 03:11:13;;;;;;;;;;;205.20;2252.80;;;;;;4952623;29;19922;-79
2023/02/21 03:13:44;;;;;;;;;;;205.20;2252.80;;;;;;4952788;29;19914;-78
2023/02/21 03:16:10;;;;;;;;;;;205.20;2252.80;;;;;;4952955;29;19981;-78
2023/02/21 03:18:35;;;;;;;;;;;205.20;2252.80;;;;;;4952680;29;19973;-79
2023/02/21 03:21:02;;;;;;;;;;;205.20;2252.80;;;;;;4952573;29;20009;-79
2023/02/21 03:23:30;;;;;;;;;;;205.20;2252.80;;;;;;4952726;29;19906;-79
2023/02/21 03:25:56;;;;;;;;;;;205.20;2252.80;;;;;;4952568;29;19978;-78
2023/02/21 03:28:23;;;;;;;;;;;205.10;2252.80;;;;;;4952667;29;19907;-79
2023/02/21 03:30:52;;;;;;;;;;;205.10;2252.80;;;;;;4952568;29;20419;-79
2023/02/21 03:33:17;;;;;;;;;;;205.10;2252.80;;;;;;4952563;29;20483;-77
2023/02/21 03:35:43;;;;;;;;;;;205.00;2252.80;;;;;;4952614;29;20002;-76
2023/02/21 03:38:09;;;;;;;;;;;205.00;2252.80;;;;;;4952689;29;19936;-78
2023/02/21 03:40:34;;;;;;;;;;;204.90;2252.80;;;;;;4993486;28;20457;-79
2023/02/21 03:43:05;;;;;;;;;;;204.90;2252.80;;;;;;5055331;28;19913;-77
2023/02/21 03:45:31;;;;;;;;;;;204.90;2252.80;;;;;;5045656;28;20259;-77
2023/02/21 03:47:57;;;;;;;;;;;205.00;2252.80;;;;;;5055056;28;19912;-78
2023/02/21 03:50:22;;;;;;;;;;;205.10;2252.80;;;;;;5055314;28;20010;-79
2023/02/21 03:52:48;;;;;;;;;;;205.10;2252.80;;;;;;5055020;28;19912;-78
2023/02/21 03:55:13;;;;;;;;;;;205.10;2252.80;;;;;;5055106;28;19917;-76
2023/02/21 03:57:39;;;;;;;;;;;205.10;2252.80;;;;;;5052352;28;20274;-74
2023/02/21 04:00:05;;;;;;;;;;;204.90;2252.80;;;;;;5054989;28;19905;-77
2023/02/21 04:02:31;;;;;;;;;;;204.80;2252.80;;;;;;5043630;28;19920;-75
2023/02/21 04:04:56;;;;;;;;;;;180.10;2252.80;;;;;;5054698;28;19911;-75
2023/02/21 04:07:22;;;;;;;;;;;179.70;2252.80;;;;;;5054847;28;20367;-78
2023/02/21 04:09:48;;;;;;;;;;;179.30;2252.80;;;;;;5054627;28;20366;-79
2023/02/21 04:12:13;;;;;;;;;;;154.20;2252.80;;;;;;5054724;28;19909;-75
2023/02/21 04:14:39;;;;;;;;;;;154.00;2252.80;;;;;;5054431;28;20354;-76
2023/02/21 04:17:05;;;;;;;;;;;153.90;2252.80;;;;;;5054812;28;19950;-79
2023/02/21 04:19:31;;;;;;;;;;;153.80;2252.80;;;;;;5054539;28;19912;-77
2023/02/21 04:21:56;;;;;;;;;;;153.70;2252.80;;;;;;5039317;28;19904;-76
2023/02/21 04:24:22;;;;;;;;;;;153.60;2252.80;;;;;;5054500;28;20321;-76
2023/02/21 04:26:47;;;;;;;;;;;153.70;2252.80;;;;;;5054377;28;19904;-78
2023/02/21 04:29:13;;;;;;;;;;;154.00;2252.80;;;;;;5054640;28;20334;-75
2023/02/21 04:31:39;;;;;;;;;;;154.10;2252.80;;;;;;5054188;28;19904;-78
2023/02/21 04:34:04;;;;;;;;;;;154.40;2252.80;;;;;;5054436;28;20377;-75
2023/02/21 04:36:30;;;;;;;;;;;179.30;2252.80;;;;;;5054203;28;19911;-78
2023/02/21 04:38:56;;;;;;;;;;;179.40;2252.80;;;;;;5054162;28;19905;-75
2023/02/21 04:41:22;;;;;;;;;;;179.70;2252.80;;;;;;5053923;28;19928;-76
2023/02/21 04:43:47;;;;;;;;;;;179.90;2252.80;;;;;;5054066;28;19911;-75
2023/02/21 04:46:15;;;;;;;;;;;180.10;2252.80;;;;;;5054128;28;19905;-78
2023/02/21 04:48:50;;;;;;;;;;;180.10;2252.80;;;;;;5054002;28;20384;-75
2023/02/21 04:51:17;;;;;;;;;;;204.80;2252.80;;;;;;5053830;28;19905;-78
2023/02/21 04:53:45;;;;;;;;;;;205.00;2252.80;;;;;;5050736;28;19916;-78
2023/02/21 04:56:11;;;;;;;;;;;205.20;2252.80;;;;;;5054018;28;19916;-78
2023/02/21 04:58:37;;;;;;;;;;;205.40;2252.80;;;;;;5053871;28;19904;-79
2023/02/21 05:01:02;;;;;;;;;;;205.50;2252.80;;;;;;5053611;28;19908;-75
2023/02/21 05:03:28;;;;;;;;;;;205.40;2252.80;;;;;;5053791;28;19955;-77
2023/02/21 05:05:54;;;;;;;;;;;205.40;2252.80;;;;;;5053619;28;19904;-78
2023/02/21 05:08:19;;;;;;;;;;;205.50;2252.80;;;;;;5053530;28;19912;-75
2023/02/21 05:10:45;;;;;;;;;;;205.50;2252.80;;;;;;5050528;28;20349;-78
2023/02/21 05:13:11;;;;;;;;;;;205.60;2252.80;;;;;;5053305;28;19917;-78
2023/02/21 05:15:36;;;;;;;;;;;205.70;2252.80;;;;;;5053534;28;19905;-77
2023/02/21 05:18:02;;;;;;;;;;;205.70;2252.80;;;;;;5053295;28;19905;-75
2023/02/21 05:20:27;;;;;;;;;;;205.70;2252.80;;;;;;5053403;28;19905;-75
2023/02/21 05:22:53;;;;;;;;;;;205.60;2252.80;;;;;;5053173;28;19905;-75
2023/02/21 05:25:20;;;;;;;;;;;205.60;2252.80;;;;;;5053450;28;19912;-76
2023/02/21 05:27:46;;;;;;;;;;;205.50;2252.80;;;;;;5053227;28;20004;-77
2023/02/21 05:30:13;;;;;;;;;;;205.30;2252.80;;;;;;5052835;28;19952;-74
2023/02/21 05:32:38;;;;;;;;;;;205.40;2252.80;;;;;;5054815;28;19905;-75
2023/02/21 05:35:04;;;;;;;;;;;205.40;2252.80;;;;;;5042666;28;19962;-77
2023/02/21 05:37:30;;;;;;;;;;;205.30;2252.80;;;;;;5066166;28;20265;-75
2023/02/21 05:39:55;;;;;;;;;;;205.20;2252.80;;;;;;5067987;28;19915;-76
2023/02/21 05:42:21;;;;;;;;;;;205.20;2252.80;;;;;;5064345;28;19920;-74
2023/02/21 05:44:46;;;;;;;;;;;205.30;2252.80;;;;;;5057124;28;19904;-74
2023/02/21 05:47:12;;;;;;;;;;;205.40;2252.80;;;;;;5056616;28;19912;-76
2023/02/21 05:49:38;;;;;;;;;;;205.30;2252.80;;;;;;5032967;28;20333;-77
2023/02/21 05:52:04;;;;;;;;;;;205.30;2252.80;;;;;;5066036;28;19904;-76
2023/02/21 05:54:30;;;;;;;;;;;205.30;2252.80;;;;;;5064426;28;20269;-77
2023/02/21 05:56:56;;;;;;;;;;;205.30;2252.80;;;;;;5060742;28;19996;-75
2023/02/21 05:59:21;;;;;;;;;;;205.30;2252.80;;;;;;5062145;28;19940;-77
2023/02/21 06:01:48;;;;;;;;;;;205.30;2252.80;;;;;;5052224;28;19911;-78
2023/02/21 06:04:13;;;;;;;;;;;205.40;2252.80;;;;;;5067451;28;19947;-77
2023/02/21 06:06:39;;;;;;;;;;;205.40;2252.80;;;;;;5060499;28;19905;-77
2023/02/21 06:09:05;;;;;;;;;;;205.50;2252.80;;;;;;5043276;28;19955;-77
2023/02/21 06:11:36;;;;;;;;;;;205.20;2252.80;;;;;;5060887;28;20011;-75
2023/02/21 06:14:02;;;;;;;;;;;205.60;2252.80;;;;;;5058225;28;20018;-73
2023/02/21 06:16:31;;;;;;;;;;;205.70;2252.80;;;;;;5052375;28;20376;-74
2023/02/21 06:18:57;;;;;;;;;;;230.40;2252.80;;;;;;5034095;28;19905;-74
2023/02/21 06:21:22;;;;;;;;;;;230.50;2252.80;;;;;;5050356;28;19950;-75
2023/02/21 06:23:48;;;;;;;;;;;230.60;2252.80;;;;;;5026273;28;19905;-74
2023/02/21 06:26:13;;;;;;;;;;;230.70;2252.80;;;;;;5056269;28;19911;-74
2023/02/21 06:28:39;;;;;;;;;;;230.80;2252.80;;;;;;5064693;28;20278;-75
2023/02/21 06:31:05;;;;;;;;;;;230.90;2252.80;;;;;;5056820;28;19904;-74
2023/02/21 06:33:31;;;;;;;;;;;230.90;2252.80;;;;;;5062488;28;19920;-74
2023/02/21 06:35:56;;;;;;;;;;;230.90;2252.80;;;;;;5063394;28;19905;-75
2023/02/21 06:38:22;;;;;;;;;;;230.90;2252.80;;;;;;5054410;28;19958;-76
2023/02/21 06:40:47;;;;;;;;;;;230.90;2252.80;;;;;;5050946;28;20263;-75
2023/02/21 06:43:13;;;;;;;;;;;231.00;2252.80;;;;;;5045048;28;20247;-74
2023/02/21 06:45:39;;;;;;;;;;;231.00;2252.80;;;;;;5055550;28;19905;-74
2023/02/21 06:48:04;;;;;;;;;;;231.10;2252.80;;;;;;5037830;28;20334;-75
2023/02/21 06:50:30;;;;;;;;;;;231.10;2252.80;;;;;;5045332;28;19999;-75
2023/02/21 06:52:55;;;;;;;;;;;231.20;2252.80;;;;;;5054709;28;19952;-75
2023/02/21 06:55:21;;;;;;;;;;;231.20;2252.80;;;;;;5026079;28;20365;-75
2023/02/21 06:57:47;;;;;;;;;;;231.30;2252.80;;;;;;5045683;28;19944;-76
2023/02/21 07:00:13;;;;;;;;;;;231.30;2252.80;;;;;;5033629;28;19948;-75
2023/02/21 07:02:38;;;;;;;;;;;256.00;2252.80;;;;;;5028726;28;20413;-76
2023/02/21 07:05:04;;;;;;;;;;;256.20;2252.80;;;;;;5025011;28;19964;-74
2023/02/21 07:07:30;;;;;;;;;;;256.20;2252.80;;;;;;5030207;28;19912;-77
2023/02/21 07:09:56;;;;;;;;;;;256.20;2252.80;;;;;;5039439;28;19909;-76
2023/02/21 07:12:21;;;;;;;;;;;256.40;2252.80;;;;;;5046171;28;20354;-77
2023/02/21 07:14:47;;;;;;;;;;;256.50;2252.80;;;;;;5026392;28;19968;-76
2023/02/21 07:17:12;;;;;;;;;;;256.60;2252.80;;;;;;5049776;28;19905;-75
2023/02/21 07:19:39;;;;;;;;;;;256.70;2252.80;;;;;;5038916;28;19920;-75
2023/02/21 07:22:04;;;;;;;;;;;256.90;2252.80;;;;;;5028961;28;19912;-78
2023/02/21 07:24:30;;;;;;;;;;;281.60;2278.40;;;;;;5023974;28;20313;-75
2023/02/21 07:26:56;;;;;;;;;;;281.70;2278.40;;;;;;5048906;28;19908;-79
2023/02/21 07:29:21;;;;;;;;;;;281.80;2278.40;;;;;;5051814;28;19909;-75
2023/02/21 07:31:47;;;;;;;;;;;281.90;2278.40;;;;;;5045746;28;19966;-75
2023/02/21 07:34:14;;;;;;;;;;;282.00;2278.40;;;;;;5050043;28;20350;-76
2023/02/21 07:36:39;;;;;;;;;;;282.20;2278.40;;;;;;5059889;28;19991;-76
2023/02/21 07:39:05;;;;;;;;;;;282.30;2278.40;;;;;;5057339;28;19988;-74
2023/02/21 07:41:30;;;;;;;;;;;282.40;2278.40;;;;;;5056579;28;20289;-76
2023/02/21 07:43:56;;;;;;;;;;;282.50;2278.40;;;;;;5053831;28;20346;-75
2023/02/21 07:46:24;;;;;;;;;;;307.30;2304.00;;;;;;5055322;28;19905;-76
2023/02/21 07:48:50;;;;;;;;;;;307.30;2304.00;;;;;;5045790;28;19908;-75
2023/02/21 07:51:15;;;;;;;;;;;307.30;2304.00;;;;;;5040674;28;19951;-75
2023/02/21 07:53:41;;;;;;;;;;;307.50;2304.00;;;;;;5040971;28;19962;-76
2023/02/21 07:56:06;;;;;;;;;;;307.60;2304.00;;;;;;5054332;28;19904;-78
2023/02/21 07:58:36;;;;;;;;;;;307.70;2304.00;;;;;;5051409;28;19904;-77
2023/02/21 08:01:03;;;;;;;;;;;307.80;2304.00;;;;;;5047112;28;19915;-75
2023/02/21 08:03:28;;;;;;;;;;;308.00;2304.00;;;;;;5046447;28;20355;-75
2023/02/21 08:05:54;;;;;;;;;;;308.10;2304.00;;;;;;5028884;28;20042;-77
2023/02/21 08:08:21;;;;;;;;;;;308.10;2304.00;;;;;;5060626;28;20003;-75
2023/02/21 08:10:47;;;;;;;;;;;308.10;2304.00;;;;;;5052983;28;19908;-76
2023/02/21 08:13:12;;;;;;;;;;;308.10;2304.00;;;;;;5054138;28;19916;-75
2023/02/21 08:15:38;;;;;;;;;;;332.80;2329.60;;;;;;5045774;28;21094;-75
2023/02/21 08:18:04;;;;;;;;;;;332.90;2329.60;;;;;;5039254;28;20358;-75
2023/02/21 08:20:29;;;;;;;;;;;332.90;2329.60;;;;;;5059792;28;19905;-77
2023/02/21 08:22:55;;;;;;;;;;;332.90;2329.60;;;;;;5046158;28;20248;-75
2023/02/21 08:25:20;;;;;;;;;;;333.00;2329.60;;;;;;5047031;28;20307;-76
2023/02/21 08:27:52;;;;;;;;;;;333.10;2329.60;;;;;;5027106;28;19905;-74
2023/02/21 08:30:18;;;;;;;;;;;333.10;2329.60;;;;;;5045915;28;19928;-76
2023/02/21 08:32:47;;;;;;;;;;;333.20;2329.60;;;;;;5047301;28;19963;-77
2023/02/21 08:35:16;;;;;;;;;;;333.20;2329.60;;;;;;5031767;28;19913;-77
2023/02/21 08:37:49;;;;;;;;;;;333.20;2329.60;;;;;;5038330;28;19915;-76
2023/02/21 08:40:17;;;;;;;;;;;333.20;2329.60;;;;;;5067265;28;19909;-77
2023/02/21 08:42:47;;;;;;;;;;;333.30;2329.60;;;;;;5055305;28;19921;-77
2023/02/21 08:45:14;;;;;;;;;;;333.40;2329.60;;;;;;5036194;28;19904;-76
2023/02/21 08:47:40;;;;;;;;;;;333.40;2329.60;;;;;;5051499;28;19909;-76
2023/02/21 08:50:06;;;;;;;;;;;333.40;2329.60;;;;;;5040723;28;19974;-75
2023/02/21 08:52:31;;;;;;;;;;;333.50;2329.60;;;;;;5030881;28;20274;-75
2023/02/21 08:54:57;;;;;;;;;;;333.60;2329.60;;;;;;5072126;28;19913;-75
2023/02/21 08:57:22;;;;;;;;;;;333.70;2329.60;;;;;;5053123;28;19904;-75
2023/02/21 08:59:48;;;;;;;;;;;333.70;2329.60;;;;;;5040625;28;19911;-75
2023/02/21 09:02:15;;;;;;;;;;;358.40;2329.60;;;;;;5057048;28;20357;-76
2023/02/21 09:04:41;;;;;;;;;;;358.40;2329.60;;;;;;5025933;28;19998;-76
2023/02/21 09:07:06;;;;;;;;;;;358.50;2329.60;;;;;;5036292;28;19956;-76
2023/02/21 09:09:32;;;;;;;;;;;358.50;2329.60;;;;;;5047797;28;19913;-76
2023/02/21 09:11:58;;;;;;;;;;;358.60;2329.60;;;;;;5036314;28;20369;-76
2023/02/21 09:14:23;;;;;;;;;;;358.60;2304.00;;;;;;5047321;28;19958;-76
2023/02/21 09:16:49;;;;;;;;;;;358.70;2278.40;;;;;;5047264;28;19904;-75
2023/02/21 09:19:15;;;;;;;;;;;358.80;2278.40;;;;;;5034257;28;20372;-76
2023/02/21 09:21:44;;;;;;;;;;;358.90;2227.20;;;;;;5045502;28;19908;-78
2023/02/21 09:24:10;;;;;;;;;;;359.00;2176.00;;;;;;5048549;28;19948;-78
2023/02/21 09:26:35;;;;;;;;;;;359.10;2150.40;;;;;;5049772;28;20373;-77
2023/02/21 09:29:01;;;;;;;;;;;359.20;2150.40;;;;;;5056459;28;19986;-77
2023/02/21 09:31:26;;;;;;;;;;;384.00;2124.80;;;;;;5043270;28;19928;-76
2023/02/21 09:33:52;;;;;;;;;;;384.20;2124.80;;;;;;5039990;28;20007;-78
2023/02/21 09:36:22;;;;;;;;;;;384.40;2124.80;;;;;;5052260;28;19912;-75
2023/02/21 09:38:51;;;;;;;;;;;384.70;2124.80;;;;;;5049466;28;19904;-77
2023/02/21 09:41:17;;;;;;;;;;;384.90;2073.60;;;;;;5040838;28;19925;-76
2023/02/21 09:43:47;;;;;;;;;;;409.70;2048.00;;;;;;5067371;28;20346;-76
2023/02/21 09:46:15;;;;;;;;;;;409.90;1971.20;;;;;;5036683;28;19909;-77
2023/02/21 09:48:42;;;;;;;;;;;410.00;1945.60;;;;;;5068170;28;19905;-77
2023/02/21 09:51:08;;;;;;;;;;;410.10;1945.60;;;;;;5035253;28;19947;-77
2023/02/21 09:53:38;;;;;;;;;;;410.20;1868.80;;;;;;5053445;28;19913;-78
2023/02/21 09:56:06;;;;;;;;;;;410.30;1843.20;;;;;;5036883;28;19912;-77
2023/02/21 09:58:31;;;;;;;;;;;410.40;1843.20;;;;;;5052578;28;19916;-77
2023/02/21 10:00:58;;;;;;;;;;;435.20;1843.20;;;;;;5048428;28;19905;-76
2023/02/21 10:03:42;;;;;;;;;;;435.30;1817.60;;;;;;5045099;28;19905;-78
2023/02/21 10:06:26;;;;;;;;;;;435.50;1766.40;;;;;;5041349;28;19905;-78
2023/02/21 10:09:03;;;;;;;;;;;435.70;1792.00;;;;;;5047427;28;20374;-78
2023/02/21 10:11:35;;;;;;;;;;;435.90;1689.60;;;;;;5068511;28;19913;-77
2023/02/21 10:14:04;;;;;;;;;;;436.10;1664.00;;;;;;5043105;28;20290;-76
2023/02/21 10:16:33;;;;;;;;;;;460.80;1689.60;;;;;;5030773;28;19958;-77
2023/02/21 10:19:17;;;;;;;;;;;460.90;1638.40;;;;;;5047909;28;19963;-76
2023/02/21 10:21:49;;;;;;;;;;;461.00;1638.40;;;;;;5039313;28;19905;-77
2023/02/21 10:24:17;;;;;;;;;;;461.10;1612.80;;;;;;5036790;28;19911;-74
2023/02/21 10:26:47;;;;;;;;;;;461.20;1612.80;;;;;;5025990;28;20364;-76
2023/02/21 10:29:36;;;;;;;;;;;461.40;1612.80;;;;;;5051407;28;20449;-77
2023/02/21 10:32:02;;;;;;;;;;;461.60;1587.20;;;;;;5031097;28;20412;-77
2023/02/21 10:34:29;;;;;;;;;;;461.50;1587.20;;;;;;5037032;28;19967;-76
2023/02/21 10:36:55;;;;;;;;;;;461.20;1587.20;;;;;;5048691;28;19908;-76
2023/02/21 10:39:23;;;;;;;;;;;461.30;1587.20;;;;;;5052896;28;19912;-78
2023/02/21 10:41:50;;;;;;;;;;;461.60;1536.00;;;;;;5056001;28;19920;-77
2023/02/21 10:44:18;;;;;;;;;;;486.50;1536.00;;;;;;5062493;28;19905;-76
2023/02/21 10:46:48;;;;;;;;;;;486.80;1510.40;;;;;;5058583;28;20327;-77
2023/02/21 10:49:27;;;;;;;;;;;487.00;1459.20;;;;;;5048944;28;19912;-77
2023/02/21 10:52:04;;;;;;;;;;;487.00;1484.80;;;;;;5056253;28;20313;-75
2023/02/21 10:54:30;;;;;;;;;;;487.20;1433.60;;;;;;5060076;28;19994;-77
2023/02/21 10:56:58;;;;;;;;;;;512.00;1408.00;;;;;;5051967;28;19905;-76
2023/02/21 10:59:25;;;;;;;;;;;512.20;1356.80;;;;;;5055646;28;19959;-76
2023/02/21 11:01:52;;;;;;;;;;;512.40;1356.80;;;;;;5035899;28;20022;-75
2023/02/21 11:04:21;;;;;;;;;;;512.80;1331.20;;;;;;5065300;28;19995;-76
2023/02/21 11:06:53;;;;;;;;;;;512.90;1305.60;;;;;;5023948;28;19984;-75
2023/02/21 11:09:37;;;;;;;;;;;537.70;1331.20;;;;;;5049733;28;19943;-75
2023/02/21 11:12:15;;;;;;;;;;;538.00;1331.20;;;;;;5056673;28;19924;-75
2023/02/21 11:14:41;;;;;;;;;;;538.10;1331.20;;;;;;5045006;28;19913;-77
2023/02/21 11:17:16;;;;;;;;;;;538.20;1331.20;;;;;;5023466;28;19905;-77
2023/02/21 11:19:55;;;;;;;;;;;538.30;1254.40;;;;;;5049982;28;19980;-77
2023/02/21 11:22:23;;;;;;;;;;;538.50;1254.40;;;;;;5024611;28;19954;-79
2023/02/21 11:24:54;;;;;;;;;;;563.30;1254.40;;;;;;5033441;28;20262;-77
2023/02/21 11:27:20;;;;;;;;;;;563.40;1254.40;;;;;;5054830;28;20365;-77
2023/02/21 11:29:47;;;;;;;;;;;563.40;1228.80;;;;;;5049605;28;19913;-77
2023/02/21 11:32:20;;;;;;;;;;;563.40;1254.40;;;;;;5054485;28;19927;-77
2023/02/21 11:34:47;;;;;;;;;;;563.20;1254.40;;;;;;5046198;28;20440;-79
2023/02/21 11:37:13;;;;;;;;;;;538.00;1228.80;;;;;;5050515;28;19915;-76
2023/02/21 11:39:40;;;;;;;;;;;538.00;1254.40;;;;;;5055001;28;19909;-76
2023/02/21 11:42:24;;;;;;;;;;;538.40;1254.40;;;;;;5056847;28;19921;-77
2023/02/21 11:45:00;;;;;;;;;;;538.50;1254.40;;;;;;5053904;28;20380;-78
2023/02/21 11:47:33;;;;;;;;;;;563.60;1254.40;;;;;;5058014;28;19905;-77
2023/02/21 11:50:07;;;;;;;;;;;563.60;1254.40;;;;;;5059420;28;19932;-77
2023/02/21 11:52:56;;;;;;;;;;;563.80;1254.40;;;;;;5046322;28;19905;-77
2023/02/21 11:55:24;;;;;;;;;;;563.70;1254.40;;;;;;4967479;28;19981;-77
2023/02/21 11:57:58;;;;;;;;;;;563.80;1228.80;;;;;;4955674;28;19906;-74
2023/02/21 12:00:24;;;;;;;;;;;563.90;1203.20;;;;;;4964994;28;20414;-75
2023/02/21 12:02:55;;;;;;;;;;;563.90;1203.20;;;;;;4967720;28;19914;-78
2023/02/21 12:05:41;;;;;;;;;;;563.80;1203.20;;;;;;4959477;28;20369;-76
2023/02/21 12:08:27;;;;;;;;;;;563.90;1203.20;;;;;;4959123;28;19998;-77
2023/02/21 12:11:13;;;;;;;;;;;564.10;1203.20;;;;;;4965044;28;20469;-78
2023/02/21 12:13:41;;;;;;;;;;;564.10;1152.00;;;;;;4961525;28;19920;-77
2023/02/21 12:16:25;;;;;;;;;;;563.90;1152.00;;;;;;4958250;28;19907;-77
2023/02/21 12:18:59;;;;;;;;;;;563.70;1152.00;;;;;;4964115;28;19913;-74
2023/02/21 12:21:34;;;;;;;;;;;563.60;1177.60;;;;;;4962100;28;19906;-77
2023/02/21 12:24:03;;;;;;;;;;;563.60;1177.60;;;;;;4968765;28;19909;-75
2023/02/21 12:26:46;;;;;;;;;;;563.60;1203.20;;;;;;4963901;28;19913;-74
2023/02/21 12:29:12;;;;;;;;;;;563.60;1177.60;;;;;;4964656;28;19910;-78
2023/02/21 12:31:41;;;;;;;;;;;563.20;1203.20;;;;;;4983244;28;19923;-75
2023/02/21 12:34:18;;;;;;;;;;;563.40;1203.20;;;;;;5045459;28;19913;-75
2023/02/21 12:37:03;;;;;;;;;;;563.20;1203.20;;;;;;5019609;28;19906;-76
2023/02/21 12:39:50;;;;;;;;;;;538.30;1203.20;;;;;;5037115;28;19916;-77
2023/02/21 12:42:18;;;;;;;;;;;537.70;1228.80;;;;;;5058991;28;20023;-75
2023/02/21 12:45:01;;;;;;;;;;;512.70;1228.80;;;;;;5055835;28;19905;-76
2023/02/21 12:47:47;;;;;;;;;;;512.60;1228.80;;;;;;5045432;28;19905;-76
2023/02/21 12:50:25;;;;;;;;;;;512.30;1254.40;;;;;;4995459;28;19912;-78
2023/02/21 12:52:57;;;;;;;;;;;512.00;1280.00;;;;;;4998918;28;19964;-77
2023/02/21 12:55:24;;;;;;;;;;;487.20;1305.60;;;;;;4993713;28;20401;-79
2023/02/21 12:57:57;;;;;;;;;;;487.20;1305.60;;;;;;5006339;28;20044;-78
2023/02/21 13:00:30;;;;;;;;;;;512.00;1280.00;;;;;;4996533;28;19906;-75
2023/02/21 13:02:58;;;;;;;;;;;512.40;1280.00;;;;;;4998892;28;19906;-78
2023/02/21 13:05:41;;;;;;;;;;;512.60;1280.00;;;;;;4994868;28;20414;-77
2023/02/21 13:08:09;;;;;;;;;;;512.80;1280.00;;;;;;4990143;28;19905;-76
2023/02/21 13:10:42;;;;;;;;;;;512.90;1254.40;;;;;;5002971;28;19921;-77
2023/02/21 13:13:16;;;;;;;;;;;537.60;1254.40;;;;;;5003371;28;20364;-79
2023/02/21 13:15:44;;;;;;;;;;;537.80;1280.00;;;;;;4995512;28;19936;-75
2023/02/21 13:18:15;;;;;;;;;;;537.80;1254.40;;;;;;5000369;28;19944;-76
2023/02/21 13:20:47;;;;;;;;;;;537.70;1254.40;;;;;;4998211;28;19913;-75
2023/02/21 13:23:48;;;;;;;;;;;512.90;1228.80;;;;;;4987469;28;19905;-75
2023/02/21 13:26:26;;;;;;;;;;;512.90;1228.80;;;;;;5006086;28;19909;-76
2023/02/21 13:28:56;;;;;;;;;;;537.60;1280.00;;;;;;5052036;28;19908;-77
2023/02/21 13:31:23;;;;;;;;;;;537.60;1280.00;;;;;;5052748;28;19905;-76
2023/02/21 13:33:51;;;;;;;;;;;512.90;1228.80;;;;;;5042562;28;19944;-78
2023/02/21 13:36:26;;;;;;;;;;;512.90;1228.80;;;;;;5032676;28;20270;-76
2023/02/21 13:39:00;;;;;;;;;;;512.90;1254.40;;;;;;5052095;28;19908;-75
2023/02/21 13:41:27;;;;;;;;;;;512.80;1254.40;;;;;;5053600;28;20417;-80
2023/02/21 13:43:54;;;;;;;;;;;512.90;1254.40;;;;;;5066599;28;19951;-75
2023/02/21 13:46:28;;;;;;;;;;;512.80;1254.40;;;;;;5044771;28;19905;-77
2023/02/21 13:49:12;;;;;;;;;;;512.70;1254.40;;;;;;5048930;28;19912;-77
2023/02/21 13:51:48;;;;;;;;;;;512.60;1228.80;;;;;;5056365;28;19958;-77
2023/02/21 13:54:21;;;;;;;;;;;512.70;1254.40;;;;;;5056357;28;19948;-77
2023/02/21 13:56:48;;;;;;;;;;;512.60;1254.40;;;;;;5046722;28;19905;-79
2023/02/21 13:59:22;;;;;;;;;;;512.50;1280.00;;;;;;5052034;28;20259;-77
2023/02/21 14:01:49;;;;;;;;;;;512.40;1280.00;;;;;;5038102;28;20368;-75
2023/02/21 14:04:33;;;;;;;;;;;512.30;1280.00;;;;;;5056542;28;19912;-75
2023/02/21 14:06:58;;;;;;;;;;;512.20;1280.00;;;;;;5050290;28;19963;-78
2023/02/21 14:09:24;;;;;;;;;;;512.20;1280.00;;;;;;5051411;28;20015;-77
2023/02/21 14:11:51;;;;;;;;;;;512.10;1305.60;;;;;;5054632;28;19912;-76
2023/02/21 14:14:22;;;;;;;;;;;512.00;1305.60;;;;;;5046840;28;19913;-77
2023/02/21 14:16:50;;;;;;;;;;;487.30;1280.00;;;;;;5047328;28;20007;-76
2023/02/21 14:19:26;;;;;;;;;;;487.10;1305.60;;;;;;5052536;28;20002;-76
2023/02/21 14:22:10;;;;;;;;;;;487.00;1305.60;;;;;;5044957;28;19963;-76
2023/02/21 14:24:37;;;;;;;;;;;486.90;1331.20;;;;;;5029518;28;19911;-80
2023/02/21 14:27:23;;;;;;;;;;;486.80;1331.20;;;;;;5047991;28;19912;-78
2023/02/21 14:29:57;;;;;;;;;;;486.70;1356.80;;;;;;5040449;28;19912;-79
2023/02/21 14:32:25;;;;;;;;;;;486.70;1356.80;;;;;;5040722;28;19905;-77
2023/02/21 14:34:53;;;;;;;;;;;486.70;1356.80;;;;;;5027578;28;20380;-75
2023/02/21 14:37:32;;;;;;;;;;;486.70;1356.80;;;;;;5049947;28;19905;-77
2023/02/21 14:40:18;;;;;;;;;;;486.70;1356.80;;;;;;5053129;28;20301;-76
2023/02/21 14:43:01;;;;;;;;;;;486.60;1356.80;;;;;;5003297;28;19917;-78
2023/02/21 14:45:54;;;;;;;;;;;486.70;1382.40;;;;;;5000401;28;19906;-75
2023/02/21 14:48:25;;;;;;;;;;;486.50;1382.40;;;;;;4978376;28;20261;-75
2023/02/21 14:50:54;;;;;;;;;;;486.50;1356.80;;;;;;4994234;28;19906;-76
2023/02/21 14:53:38;;;;;;;;;;;486.50;1356.80;;;;;;4981387;28;19906;-75
2023/02/21 14:56:22;;;;;;;;;;;486.50;1356.80;;;;;;4992562;28;19910;-75
2023/02/21 14:58:47;;;;;;;;;;;486.50;1356.80;;;;;;4993816;28;19905;-75
2023/02/21 15:01:13;;;;;;;;;;;486.50;1382.40;;;;;;4989204;28;20442;-75
2023/02/21 15:03:53;;;;;;;;;;;486.50;1408.00;;;;;;4981032;28;20385;-76
2023/02/21 15:06:19;;;;;;;;;;;486.40;1408.00;;;;;;4994074;28;20053;-75
2023/02/21 15:08:47;;;;;;;;;;;486.40;1408.00;;;;;;4991165;28;19912;-75
2023/02/21 15:11:15;;;;;;;;;;;486.40;1408.00;;;;;;4997240;28;19913;-76
2023/02/21 15:13:40;;;;;;;;;;;461.70;1433.60;;;;;;4992012;28;19913;-77
2023/02/21 15:16:07;;;;;;;;;;;461.70;1433.60;;;;;;4991326;28;20344;-75
2023/02/21 15:18:36;;;;;;;;;;;461.70;1433.60;;;;;;4991588;28;19906;-76
2023/02/21 15:21:02;;;;;;;;;;;461.70;1433.60;;;;;;5044764;28;19913;-75
2023/02/21 15:23:31;;;;;;;;;;;461.70;1433.60;;;;;;5041668;28;20321;-75
2023/02/21 15:25:57;;;;;;;;;;;461.70;1433.60;;;;;;5040266;28;19905;-75
2023/02/21 15:28:28;;;;;;;;;;;461.60;1433.60;;;;;;5053547;28;19905;-77
2023/02/21 15:31:00;;;;;;;;;;;461.60;1433.60;;;;;;5023751;28;19911;-75
2023/02/21 15:33:28;;;;;;;;;;;461.60;1433.60;;;;;;5045947;28;19904;-75
2023/02/21 15:35:56;;;;;;;;;;;461.50;1433.60;;;;;;5039275;28;19909;-75
2023/02/21 15:38:33;;;;;;;;;;;461.50;1459.20;;;;;;5052218;28;19958;-75
2023/02/21 15:41:01;;;;;;;;;;;461.40;1459.20;;;;;;5052585;28;19917;-75
2023/02/21 15:43:32;;;;;;;;;;;461.40;1459.20;;;;;;5057200;28;19909;-75
2023/02/21 15:45:59;;;;;;;;;;;461.40;1484.80;;;;;;5050047;28;19904;-76
2023/02/21 15:48:24;;;;;;;;;;;461.30;1484.80;;;;;;5051864;28;20368;-76
2023/02/21 15:50:50;;;;;;;;;;;461.20;1484.80;;;;;;5057237;28;19905;-76
2023/02/21 15:53:18;;;;;;;;;;;461.20;1484.80;;;;;;5056414;28;19911;-75
2023/02/21 15:55:44;;;;;;;;;;;461.20;1510.40;;;;;;5058456;28;19923;-74
2023/02/21 15:58:21;;;;;;;;;;;461.10;1510.40;;;;;;5049942;28;19905;-75
2023/02/21 16:00:48;;;;;;;;;;;461.10;1510.40;;;;;;5037001;28;19939;-77
2023/02/21 16:03:29;;;;;;;;;;;461.00;1510.40;;;;;;5057817;28;19930;-75
2023/02/21 16:06:15;;;;;;;;;;;460.80;1510.40;;;;;;5048636;28;19913;-75
2023/02/21 16:08:49;;;;;;;;;;;460.80;1510.40;;;;;;5039808;28;19904;-76